Airfield :
LOGIN :

Register | Disclaimer

   EN    FR    IT 

 










Legend :    VFR   Marginal VFR   IFR   Intensive IFR   Very Intensive IFR
Visi :
Ceiling :
>= 8 km
>= 3000ft
5 to 8 km
1000 to 3000 ft
1500m to 5 km
500 to 1000 ft
800 to 1500m
200 to 500 ft
< 800m
< 200 ft
Symbols :   Thunderstorms  Fog  Heavy snow  Heavy precipitations  Wind > 20 kt
SIGMETs :     Misc.  Thunderstorms  Icing  Turbulence  Mountain Waves  Volcanic Ashes







- Airport Elevation : 183 ft
- IATA code : HAJ


EDDV - Hanover/Langenhagen Int.

CURRENT METAR :
  • 240720Z 18007KT 8000 BKN014 BKN024 11/10 Q1022 TEMPO 4000 BR BKN009

EXPIRED METARs :
  • 240650Z 17006KT 7000 SCT014 BKN034 11/10 Q1021 TEMPO 4000 BR BKN009
  • 240620Z 18004KT 6000 SCT012 BKN044 11/09 Q1021 TEMPO 4000 BR BKN009
  • 240550Z 16005KT 8000 BKN011 BKN043 11/09 Q1021 TEMPO 4000 BR BKN009
  • 240520Z 19004KT 9999 BKN010 11/10 Q1021 TEMPO BKN009
  • 240450Z 18003KT 9999 BKN009 BKN033 10/09 Q1021 TEMPO BKN010

TAF TAF EDDV
Valid from the 24 at 06:00 until the 25 at 06:00 UTC


240500Z 2406/2506 19007KT 6000 BKN012
TEMPO 2406/2418 3500 -DZ BR BKN008
TEMPO 2418/2503 1400 DZ BKN004
TEMPO 2503/2506 4000 BR BKN006
No reported NOTAMs for that airfield.



MET'MAP, your aeronautical weather chart ! - Copyright ORBIFLY December 2007 - Disclaimer

ORBIFLY MET'MAP TEAM :

Programming & Development : Alexandra Zaïnal
Concept & Development : Baudouin d'Aumeries
Co-Development & Prog : Marc-Olivier Méhu
Technical & hardware support : Manuel Goepfert

Contact : metmap@orbifly.com




SOURCES & CREDITS :

   NOAA